createdAt,value
2023-07-08T00:00:08.977Z,21
2023-07-08T00:12:08.938Z,21
2023-07-08T00:24:09.084Z,21
2023-07-08T00:36:09.056Z,21
2023-07-08T00:48:08.981Z,21
2023-07-08T01:00:08.992Z,21
2023-07-08T01:12:09.151Z,21
2023-07-08T01:24:09.071Z,21
2023-07-08T01:36:09.017Z,21
2023-07-08T01:48:09.101Z,21
2023-07-08T02:00:09.219Z,20.5
2023-07-08T02:12:09.103Z,20.5
2023-07-08T02:24:09.037Z,20
2023-07-08T02:36:09.254Z,19.5
2023-07-08T02:48:09.145Z,19.5
2023-07-08T03:00:09.170Z,19.5
2023-07-08T03:12:09.065Z,19.5
2023-07-08T03:24:09.263Z,19.5
2023-07-08T03:36:09.194Z,19.5
2023-07-08T03:48:09.177Z,19.5
2023-07-08T04:00:09.180Z,20
2023-07-08T04:12:09.292Z,20
2023-07-08T04:24:09.221Z,21
2023-07-08T04:36:09.203Z,21
2023-07-08T04:48:09.359Z,21
2023-07-08T05:00:09.364Z,21
2023-07-08T05:12:09.381Z,22
2023-07-08T05:24:09.246Z,22
2023-07-08T05:36:09.422Z,22
2023-07-08T05:48:09.348Z,22
2023-07-08T06:00:09.319Z,23
2023-07-08T06:12:09.281Z,24
2023-07-08T06:24:09.394Z,24
2023-07-08T06:36:09.421Z,24
2023-07-08T06:48:09.358Z,24.5
2023-07-08T07:00:10.762Z,25.5
2023-07-08T07:12:09.437Z,26.5
2023-07-08T07:24:09.416Z,31
2023-07-08T07:36:09.347Z,31.5
2023-07-08T07:48:09.608Z,27.5
2023-07-08T08:00:09.501Z,26.5
2023-07-08T08:12:09.452Z,25.5
2023-07-08T08:24:09.376Z,24.5
2023-07-08T08:36:09.565Z,25
2023-07-08T08:48:09.505Z,26
2023-07-08T09:00:09.502Z,33.5
2023-07-08T09:12:09.766Z,28.5
2023-07-08T09:24:09.733Z,26.5
2023-07-08T09:36:09.510Z,25.5
2023-07-08T09:48:09.553Z,27
2023-07-08T10:00:09.654Z,27
2023-07-08T10:12:10.116Z,27
2023-07-08T10:24:09.545Z,27
2023-07-08T10:36:09.520Z,26.5
2023-07-08T10:48:09.655Z,27
2023-07-08T11:00:09.663Z,26.5
2023-07-08T11:12:09.707Z,25.5
2023-07-08T11:24:09.975Z,26
2023-07-08T11:36:09.691Z,28
2023-07-08T12:00:09.610Z,26
2023-07-08T12:12:09.796Z,26.5
2023-07-08T12:24:09.733Z,26
2023-07-08T12:36:09.732Z,27.5
2023-07-08T12:48:09.667Z,26.5
2023-07-08T13:00:09.824Z,26
2023-07-08T13:12:09.822Z,25.5
2023-07-08T13:24:09.743Z,26
2023-07-08T13:36:10.160Z,24.5
2023-07-08T13:48:09.887Z,24.5
2023-07-08T14:00:09.826Z,24
2023-07-08T14:12:10.058Z,21.5
2023-07-08T14:24:09.907Z,21.5
2023-07-08T14:48:09.930Z,19.5
2023-07-08T16:00:00.403Z,19
2023-07-08T16:12:00.235Z,19.5
2023-07-08T16:24:00.381Z,21
2023-07-08T16:36:00.293Z,21
2023-07-08T16:48:00.317Z,20.5
2023-07-08T17:12:00.408Z,19
2023-07-08T17:24:01.372Z,20
2023-07-08T17:36:00.356Z,21
2023-07-08T17:48:00.624Z,20.5
2023-07-08T18:00:00.380Z,20.5
2023-07-08T18:12:00.304Z,20.5
2023-07-08T18:24:00.535Z,21
2023-07-08T18:36:00.841Z,20.5
2023-07-08T18:48:01.190Z,21
2023-07-08T19:00:00.363Z,19.5
2023-07-08T19:12:00.534Z,19.5
2023-07-08T19:24:00.477Z,20
2023-07-08T19:36:00.587Z,20
2023-07-08T19:48:00.419Z,19.5
2023-07-08T20:00:00.631Z,18.5
2023-07-08T20:12:00.505Z,19
2023-07-08T20:24:00.459Z,18.5
2023-07-08T20:36:01.013Z,18.5
2023-07-08T20:48:00.768Z,17.5
2023-07-08T21:00:00.524Z,17.5
2023-07-08T21:12:00.553Z,18
2023-07-08T21:24:00.651Z,17.5
2023-07-08T21:36:00.903Z,16.5
2023-07-08T21:48:00.599Z,17
2023-07-08T22:00:00.552Z,17
2023-07-08T22:12:00.684Z,17.5
2023-07-08T22:24:00.654Z,17.5
2023-07-08T22:36:00.757Z,17.5
2023-07-08T22:48:00.654Z,18
2023-07-08T23:00:00.791Z,18
2023-07-08T23:12:00.720Z,18
2023-07-08T23:24:00.908Z,18
2023-07-08T23:36:01.118Z,18.5
2023-07-08T23:48:00.761Z,19
